Terminal Aerodrome Forecast
Issued by NWS

Home | Current Version | Previous Version | Text Only | Print | Product List | Glossary On
Versions: 1 2 3 4 5 6 7 8 9 10 11 12 13 14 15 16 17
178
FTUS44 KBMX 292339
TAFEET
TAF
KEET 292339Z 3000/3024 VRB04KT P6SM TSRA OVC040CB
      TEMPO 3000/3002 28018G26KT 1SM TSRA BR OVC030CB
     FM300400 VRB04KT P6SM VCTS BKN070CB OVC200
     FM300600 VRB03KT P6SM SCT080 OVC250
     FM301700 18008KT P6SM BKN120
     FM302200 18007KT P6SM VCSH SCT060 BKN250=

USA.gov is the U.S. government's official web portal to all federal, state and local government web resources and services.